createdAt,value
2018-08-14T00:00:21.607Z,94.21
2018-08-14T00:01:21.560Z,93.68
2018-08-14T00:02:21.518Z,93.59
2018-08-14T00:03:21.470Z,93.82
2018-08-14T00:04:21.450Z,93.68
2018-08-14T00:05:21.376Z,93.49
2018-08-14T00:06:21.328Z,93.20
2018-08-14T00:07:21.302Z,93.77
2018-08-14T00:08:21.232Z,94.07
2018-08-14T00:09:21.208Z,93.63
2018-08-14T00:10:21.138Z,93.63
2018-08-14T00:11:21.092Z,93.82
2018-08-14T00:12:21.045Z,93.44
2018-08-14T00:13:20.998Z,94.01
2018-08-14T00:14:20.978Z,93.63
2018-08-14T00:15:20.904Z,94.21
2018-08-14T00:16:20.856Z,93.44
2018-08-14T00:17:20.810Z,93.82
2018-08-14T00:18:20.770Z,93.73
2018-08-14T00:19:20.740Z,94.11
2018-08-14T00:20:20.670Z,94.11
2018-08-14T00:21:20.621Z,93.63
2018-08-14T00:22:20.579Z,92.96
2018-08-14T00:23:20.526Z,93.68
2018-08-14T00:24:20.509Z,92.43
2018-08-14T00:25:20.436Z,92.82
2018-08-14T00:26:20.388Z,92.72
2018-08-14T00:27:20.340Z,92.53
2018-08-14T00:28:20.294Z,92.63
2018-08-14T00:29:20.267Z,93.49
2018-08-14T00:30:20.198Z,92.43
2018-08-14T00:31:20.153Z,92.63
2018-08-14T00:32:20.104Z,92.43
2018-08-14T00:33:20.059Z,92.53
2018-08-14T00:34:20.032Z,91.96
2018-08-14T00:35:19.961Z,92.63
2018-08-14T00:36:19.917Z,92.63
2018-08-14T00:37:19.869Z,92.05
2018-08-14T00:38:19.821Z,92.43
2018-08-14T00:39:19.795Z,92.63
2018-08-14T00:40:19.727Z,92.53
2018-08-14T00:41:19.680Z,92.63
2018-08-14T00:42:19.632Z,92.72
2018-08-14T00:43:19.586Z,92.53
2018-08-14T00:44:19.562Z,92.82
2018-08-14T00:45:19.491Z,92.33
2018-08-14T00:46:19.446Z,91.96
2018-08-14T00:47:19.397Z,92.43
2018-08-14T00:48:19.354Z,92.63
2018-08-14T00:49:19.328Z,92.72
2018-08-14T00:50:19.255Z,92.63
2018-08-14T00:51:19.207Z,92.33
2018-08-14T00:52:19.163Z,92.72
2018-08-14T00:53:19.113Z,92.43
2018-08-14T00:54:19.094Z,92.63
2018-08-14T00:55:19.045Z,93.39
2018-08-14T00:56:18.975Z,93.49
2018-08-14T00:57:18.923Z,93.63
2018-08-14T00:58:18.877Z,93.92
2018-08-14T00:59:18.828Z,93.34
2018-08-14T01:00:18.811Z,92.67
2018-08-14T01:01:18.736Z,93.15
2018-08-14T01:02:18.723Z,92.67
2018-08-14T01:03:18.641Z,92.82
2018-08-14T01:04:18.595Z,92.53
2018-08-14T01:05:18.571Z,92.63
2018-08-14T01:06:18.499Z,92.53
2018-08-14T01:07:18.455Z,92.63
2018-08-14T01:08:18.405Z,92.82
2018-08-14T01:09:18.361Z,92.33
2018-08-14T01:10:18.337Z,92.63
2018-08-14T01:11:18.267Z,92.43
2018-08-14T01:12:18.218Z,92.63
2018-08-14T01:13:18.172Z,92.53
2018-08-14T01:14:18.127Z,92.82
2018-08-14T01:15:18.098Z,92.53
2018-08-14T01:16:18.031Z,92.53
2018-08-14T01:17:17.985Z,92.53
2018-08-14T01:18:17.933Z,91.96
2018-08-14T01:19:17.888Z,92.43
2018-08-14T01:20:17.869Z,92.53
2018-08-14T01:21:17.796Z,92.72
2018-08-14T01:22:17.757Z,92.63
2018-08-14T01:23:17.703Z,93.01
2018-08-14T01:24:17.653Z,92.43
2018-08-14T01:25:17.626Z,93.10
2018-08-14T01:26:17.555Z,92.72
2018-08-14T01:27:17.508Z,92.63
2018-08-14T01:28:17.466Z,92.48
2018-08-14T01:29:17.417Z,92.05
2018-08-14T01:30:17.395Z,92.86
2018-08-14T01:31:17.323Z,93.05
2018-08-14T01:32:17.275Z,92.38
2018-08-14T01:33:17.231Z,93.15
2018-08-14T01:34:17.178Z,93.34
2018-08-14T01:35:17.159Z,93.25
2018-08-14T01:36:17.088Z,92.91
2018-08-14T01:37:17.040Z,93.44
2018-08-14T01:38:16.993Z,92.77
2018-08-14T01:39:16.946Z,93.10
2018-08-14T01:40:16.923Z,93.63
2018-08-14T01:41:16.850Z,93.34
2018-08-14T01:42:16.803Z,92.77
2018-08-14T01:43:16.761Z,92.67
2018-08-14T01:44:16.710Z,92.72
2018-08-14T01:45:16.684Z,93.54
2018-08-14T01:46:16.614Z,93.01
2018-08-14T01:47:16.616Z,92.77
2018-08-14T01:48:16.539Z,92.57
2018-08-14T01:49:16.472Z,92.91
2018-08-14T01:50:16.460Z,92.53
2018-08-14T01:51:16.379Z,92.72
2018-08-14T01:52:16.334Z,92.43
2018-08-14T01:53:16.284Z,92.72
2018-08-14T01:54:16.239Z,93.20
2018-08-14T01:55:16.216Z,93.68
2018-08-14T01:56:16.145Z,93.10
2018-08-14T01:57:16.099Z,92.63
2018-08-14T01:58:16.055Z,92.33
2018-08-14T01:59:16.000Z,92.91
2018-08-14T02:00:15.987Z,92.91
2018-08-14T02:01:15.909Z,92.53
2018-08-14T02:02:15.860Z,92.53
2018-08-14T02:03:15.813Z,92.91
2018-08-14T02:04:15.768Z,92.53
2018-08-14T02:05:15.743Z,92.91
2018-08-14T02:06:15.670Z,92.53
2018-08-14T02:07:15.624Z,92.63
2018-08-14T02:08:15.582Z,92.63
2018-08-14T02:09:15.532Z,92.63
2018-08-14T02:10:15.503Z,92.43
2018-08-14T02:11:15.435Z,92.72
2018-08-14T02:12:15.391Z,93.59
2018-08-14T02:13:15.341Z,93.30
2018-08-14T02:14:15.295Z,93.39
2018-08-14T02:15:15.266Z,92.82
2018-08-14T02:16:15.200Z,92.43
2018-08-14T02:17:15.154Z,93.39
2018-08-14T02:18:15.103Z,93.39
2018-08-14T02:19:15.072Z,93.39
2018-08-14T02:20:15.049Z,93.30
2018-08-14T02:21:14.966Z,92.63
2018-08-14T02:22:14.918Z,93.39
2018-08-14T02:23:14.866Z,93.30
2018-08-14T02:24:14.822Z,92.82
2018-08-14T02:25:14.776Z,93.59
2018-08-14T02:26:14.753Z,93.49
2018-08-14T02:27:14.677Z,93.97
2018-08-14T02:28:14.635Z,93.59
2018-08-14T02:29:14.588Z,93.39
2018-08-14T02:30:14.539Z,93.68
2018-08-14T02:31:14.515Z,94.16
2018-08-14T02:32:14.450Z,94.16
2018-08-14T02:33:14.396Z,93.59
2018-08-14T02:34:14.361Z,93.97
2018-08-14T02:35:14.304Z,94.74
2018-08-14T02:36:14.279Z,93.10
2018-08-14T02:37:14.210Z,92.72
2018-08-14T02:38:14.164Z,93.10
2018-08-14T02:39:14.113Z,93.59
2018-08-14T02:40:14.066Z,93.39
2018-08-14T02:41:14.046Z,93.30
2018-08-14T02:42:13.975Z,92.63
2018-08-14T02:43:13.925Z,93.30
2018-08-14T02:44:13.876Z,93.59
2018-08-14T02:45:13.832Z,93.68
2018-08-14T02:46:13.810Z,93.54
2018-08-14T02:47:13.736Z,92.82
2018-08-14T02:48:13.690Z,92.53
2018-08-14T02:49:13.641Z,93.01
2018-08-14T02:50:13.603Z,92.63
2018-08-14T02:51:13.572Z,92.43
2018-08-14T02:52:13.498Z,93.30
2018-08-14T02:53:13.452Z,92.82
2018-08-14T02:54:13.407Z,92.82
2018-08-14T02:55:13.365Z,92.63
2018-08-14T02:56:13.333Z,92.43
2018-08-14T02:57:13.264Z,92.33
2018-08-14T02:58:13.218Z,92.53
2018-08-14T02:59:13.169Z,92.63
2018-08-14T03:00:13.124Z,92.33
2018-08-14T03:01:13.103Z,92.68
2018-08-14T03:02:13.028Z,92.14
2018-08-14T03:03:12.983Z,92.00
2018-08-14T03:04:12.936Z,92.05
2018-08-14T03:05:12.885Z,91.28
2018-08-14T03:06:12.859Z,91.86
2018-08-14T03:07:12.799Z,92.05
2018-08-14T03:08:12.746Z,91.38
2018-08-14T03:09:12.695Z,91.47
2018-08-14T03:10:12.650Z,92.05
2018-08-14T03:11:12.625Z,91.76
2018-08-14T03:12:12.558Z,91.57
2018-08-14T03:13:12.507Z,91.47
2018-08-14T03:14:12.464Z,91.28
2018-08-14T03:15:12.410Z,91.76
2018-08-14T03:16:12.392Z,91.28
2018-08-14T03:17:12.320Z,91.38
2018-08-14T03:18:12.274Z,91.57
2018-08-14T03:19:12.223Z,91.38
2018-08-14T03:20:12.185Z,91.28
2018-08-14T03:21:12.154Z,91.47
2018-08-14T03:22:12.083Z,91.57
2018-08-14T03:23:12.034Z,90.70
2018-08-14T03:24:11.986Z,90.80
2018-08-14T03:25:11.941Z,90.61
2018-08-14T03:26:11.921Z,90.99
2018-08-14T03:27:11.849Z,90.80
2018-08-14T03:28:11.804Z,91.66
2018-08-14T03:29:11.751Z,90.61
2018-08-14T03:30:11.703Z,91.28
2018-08-14T03:31:11.682Z,90.22
2018-08-14T03:32:11.612Z,91.09
2018-08-14T03:33:11.566Z,90.32
2018-08-14T03:34:11.512Z,90.99
2018-08-14T03:35:11.462Z,90.80
2018-08-14T03:36:11.440Z,90.80
2018-08-14T03:37:11.373Z,90.80
2018-08-14T03:38:11.327Z,90.61
2018-08-14T03:39:11.278Z,90.90
2018-08-14T03:40:11.230Z,90.90
2018-08-14T03:41:11.222Z,90.32
2018-08-14T03:42:11.137Z,90.99
2018-08-14T03:43:11.088Z,90.32
2018-08-14T03:44:11.038Z,90.70
2018-08-14T03:45:10.991Z,91.09
2018-08-14T03:46:10.949Z,90.80
2018-08-14T03:47:10.923Z,91.38
2018-08-14T03:48:10.852Z,90.32
2018-08-14T03:49:10.809Z,90.80
2018-08-14T03:50:10.757Z,90.52
2018-08-14T03:51:10.711Z,90.80
2018-08-14T03:52:10.689Z,90.70
2018-08-14T03:53:10.617Z,90.99
2018-08-14T03:54:10.577Z,90.52
2018-08-14T03:55:10.521Z,91.09
2018-08-14T03:56:10.475Z,90.99
2018-08-14T03:57:10.450Z,90.70
2018-08-14T03:58:10.383Z,91.09
2018-08-14T03:59:10.336Z,90.22
2018-08-14T04:00:10.285Z,90.32
2018-08-14T04:01:10.237Z,90.22
2018-08-14T04:02:10.214Z,90.52
2018-08-14T04:03:10.143Z,90.52
2018-08-14T04:04:10.096Z,90.42
2018-08-14T04:05:10.052Z,90.22
2018-08-14T04:06:10.140Z,90.32
2018-08-14T04:07:09.975Z,90.32
2018-08-14T04:08:09.906Z,90.32
2018-08-14T04:09:09.863Z,90.32
2018-08-14T04:10:09.816Z,90.32
2018-08-14T04:11:09.764Z,90.13
2018-08-14T04:12:09.747Z,90.22
2018-08-14T04:13:09.680Z,89.55
2018-08-14T04:14:09.625Z,90.22
2018-08-14T04:15:09.578Z,90.32
2018-08-14T04:16:09.528Z,90.27
2018-08-14T04:17:09.514Z,89.26
2018-08-14T04:18:09.431Z,90.22
2018-08-14T04:19:09.385Z,90.42
2018-08-14T04:20:09.342Z,89.98
2018-08-14T04:21:09.296Z,89.79
2018-08-14T04:22:09.271Z,89.60
2018-08-14T04:23:09.205Z,90.27
2018-08-14T04:24:09.154Z,90.03
2018-08-14T04:25:09.102Z,90.27
2018-08-14T04:26:09.059Z,89.98
2018-08-14T04:27:09.040Z,89.60
2018-08-14T04:28:08.964Z,90.56
2018-08-14T04:29:08.921Z,89.46
2018-08-14T04:30:08.866Z,90.27
2018-08-14T04:31:08.820Z,90.66
2018-08-14T04:32:08.800Z,90.27
2018-08-14T04:33:08.727Z,89.89
2018-08-14T04:34:08.684Z,90.27
2018-08-14T04:35:08.630Z,89.89
2018-08-14T04:36:08.591Z,89.60
2018-08-14T04:37:08.566Z,89.50
2018-08-14T04:38:08.501Z,90.08
2018-08-14T04:39:08.445Z,90.46
2018-08-14T04:40:08.399Z,89.89
2018-08-14T04:41:08.355Z,90.27
2018-08-14T04:42:08.328Z,90.08
2018-08-14T04:43:08.260Z,90.27
2018-08-14T04:44:08.208Z,90.08
2018-08-14T04:45:08.167Z,89.60
2018-08-14T04:46:08.119Z,90.37
2018-08-14T04:47:08.091Z,89.50
2018-08-14T04:48:08.024Z,89.40
2018-08-14T04:49:07.978Z,90.27
2018-08-14T04:50:07.936Z,90.56
2018-08-14T04:51:07.878Z,90.56
2018-08-14T04:52:07.857Z,90.37
2018-08-14T04:53:07.786Z,90.37
2018-08-14T04:54:07.739Z,90.37
2018-08-14T04:55:07.694Z,87.77
2018-08-14T04:56:07.645Z,88.06
2018-08-14T04:57:07.633Z,87.19
2018-08-14T04:58:07.550Z,87.29
2018-08-14T04:59:07.501Z,86.33
2018-08-14T05:00:07.457Z,86.24
2018-08-14T05:01:07.414Z,86.33
2018-08-14T05:02:07.385Z,86.62
2018-08-14T05:03:07.317Z,86.33
2018-08-14T05:04:07.273Z,85.71
2018-08-14T05:05:07.219Z,85.71
2018-08-14T05:06:07.174Z,86.48
2018-08-14T05:07:07.154Z,86.77
2018-08-14T05:08:07.080Z,85.71
2018-08-14T05:09:07.031Z,85.81
2018-08-14T05:10:06.983Z,85.62
2018-08-14T05:11:06.937Z,85.81
2018-08-14T05:12:06.933Z,86.19
2018-08-14T05:13:06.845Z,85.42
2018-08-14T05:14:06.793Z,85.42
2018-08-14T05:15:06.744Z,85.52
2018-08-14T05:16:06.706Z,85.62
2018-08-14T05:17:06.652Z,85.33
2018-08-14T05:18:06.627Z,85.04
2018-08-14T05:19:06.555Z,85.14
2018-08-14T05:20:06.512Z,85.52
2018-08-14T05:21:06.461Z,85.24
2018-08-14T05:22:06.417Z,85.52
2018-08-14T05:23:06.387Z,84.47
2018-08-14T05:24:06.315Z,84.33
2018-08-14T05:25:06.269Z,84.47
2018-08-14T05:26:06.225Z,84.52
2018-08-14T05:27:06.178Z,84.14
2018-08-14T05:28:06.149Z,84.14
2018-08-14T05:29:06.088Z,83.89
2018-08-14T05:30:06.032Z,83.41
2018-08-14T05:31:05.984Z,83.51
2018-08-14T05:32:05.936Z,83.22
2018-08-14T05:33:05.911Z,83.31
2018-08-14T05:34:05.839Z,82.74
2018-08-14T05:35:05.792Z,82.26
2018-08-14T05:36:05.750Z,82.64
2018-08-14T05:37:05.699Z,82.35
2018-08-14T05:38:05.675Z,81.59
2018-08-14T05:39:05.602Z,81.59
2018-08-14T05:40:05.554Z,81.20
2018-08-14T05:41:05.509Z,81.01
2018-08-14T05:42:05.459Z,81.30
2018-08-14T05:43:05.434Z,81.59
2018-08-14T05:44:05.365Z,80.63
2018-08-14T05:45:05.318Z,80.53
2018-08-14T05:46:05.267Z,80.91
2018-08-14T05:47:05.221Z,80.53
2018-08-14T05:48:05.201Z,80.43
2018-08-14T05:49:05.125Z,80.05
2018-08-14T05:50:05.080Z,80.53
2018-08-14T05:51:05.030Z,80.43
2018-08-14T05:52:04.982Z,79.96
2018-08-14T05:53:05.028Z,80.53
2018-08-14T05:54:04.889Z,80.24
2018-08-14T05:55:04.852Z,80.15
2018-08-14T05:56:04.794Z,80.24
2018-08-14T05:57:04.746Z,79.96
2018-08-14T05:58:04.720Z,80.43
2018-08-14T05:59:04.651Z,80.53
2018-08-14T06:00:04.603Z,80.15
2018-08-14T06:01:04.553Z,79.67
2018-08-14T06:02:04.504Z,79.76
2018-08-14T06:03:04.479Z,79.57
2018-08-14T06:04:04.413Z,79.47
2018-08-14T06:05:04.368Z,79.57
2018-08-14T06:06:04.314Z,79.57
2018-08-14T06:07:04.267Z,79.09
2018-08-14T06:08:04.243Z,79.09
2018-08-14T06:09:04.169Z,79.28
2018-08-14T06:10:04.128Z,78.99
2018-08-14T06:11:04.075Z,78.90
2018-08-14T06:12:04.029Z,78.70
2018-08-14T06:13:04.013Z,79.19
2018-08-14T06:14:03.931Z,79.28
2018-08-14T06:15:03.886Z,79.09
2018-08-14T06:16:03.840Z,79.09
2018-08-14T06:17:03.892Z,79.09
2018-08-14T06:18:03.763Z,78.90
2018-08-14T06:19:03.698Z,78.61
2018-08-14T06:20:03.649Z,78.23
2018-08-14T06:21:03.605Z,78.03
2018-08-14T06:22:03.553Z,78.13
2018-08-14T06:23:03.525Z,78.32
2018-08-14T06:24:03.456Z,78.70
2018-08-14T06:25:03.420Z,78.13
2018-08-14T06:26:03.361Z,78.23
2018-08-14T06:27:03.313Z,78.52
2018-08-14T06:28:03.289Z,78.42
2018-08-14T06:29:03.235Z,77.94
2018-08-14T06:30:03.174Z,78.23
2018-08-14T06:31:03.125Z,78.32
2018-08-14T06:32:03.075Z,78.42
2018-08-14T06:33:03.067Z,78.13
2018-08-14T06:34:02.979Z,78.32
2018-08-14T06:35:02.934Z,78.13
2018-08-14T06:36:02.891Z,78.32
2018-08-14T06:37:02.837Z,78.32
2018-08-14T06:38:02.792Z,78.13
2018-08-14T06:39:02.768Z,77.75
2018-08-14T06:40:02.696Z,77.84
2018-08-14T06:41:02.674Z,77.36
2018-08-14T06:42:02.600Z,77.17
2018-08-14T06:43:02.551Z,77.65
2018-08-14T06:44:02.533Z,77.75
2018-08-14T06:45:02.457Z,77.65
2018-08-14T06:46:02.408Z,77.36
2018-08-14T06:47:02.362Z,77.46
2018-08-14T06:48:02.313Z,77.46
2018-08-14T06:49:02.332Z,77.46
2018-08-14T06:50:02.221Z,77.17
2018-08-14T06:51:02.174Z,77.17
2018-08-14T06:52:02.141Z,77.56
2018-08-14T06:53:02.074Z,76.98
2018-08-14T06:54:02.055Z,77.36
2018-08-14T06:55:01.978Z,77.46
2018-08-14T06:56:01.934Z,76.88
2018-08-14T06:57:01.886Z,76.98
2018-08-14T06:58:01.838Z,76.98
2018-08-14T06:59:01.816Z,76.79
2018-08-14T07:00:01.747Z,76.79
2018-08-14T07:01:01.714Z,76.79
2018-08-14T07:02:01.651Z,77.08
2018-08-14T07:03:01.601Z,77.26
2018-08-14T07:04:01.577Z,76.40
2018-08-14T07:05:01.510Z,76.31
2018-08-14T07:06:01.459Z,76.54
2018-08-14T07:07:01.409Z,76.54
2018-08-14T07:08:01.362Z,76.54
2018-08-14T07:09:01.340Z,76.44
2018-08-14T07:10:01.268Z,76.25
2018-08-14T07:11:01.226Z,75.77
2018-08-14T07:12:01.172Z,75.67
2018-08-14T07:13:01.127Z,75.77
2018-08-14T07:14:01.105Z,75.87
2018-08-14T07:15:01.029Z,76.15
2018-08-14T07:16:00.987Z,75.67
2018-08-14T07:17:00.938Z,75.48
2018-08-14T07:18:00.940Z,75.57
2018-08-14T07:19:00.863Z,75.96
2018-08-14T07:20:00.791Z,76.06
2018-08-14T07:21:00.751Z,75.96
2018-08-14T07:22:00.697Z,75.96
2018-08-14T07:23:00.650Z,75.87
2018-08-14T07:24:00.626Z,76.15
2018-08-14T07:25:00.557Z,75.77
2018-08-14T07:26:00.512Z,75.96
2018-08-14T07:27:00.472Z,76.06
2018-08-14T07:28:00.420Z,75.67
2018-08-14T07:29:00.388Z,75.48
2018-08-14T07:30:00.320Z,75.57
2018-08-14T07:31:00.274Z,75.38
2018-08-14T07:32:00.224Z,75.57
2018-08-14T07:33:00.182Z,75.57
2018-08-14T07:34:00.166Z,75.57
2018-08-14T07:35:00.094Z,75.20
2018-08-14T07:36:00.047Z,75.23
2018-08-14T07:36:59.988Z,74.65
2018-08-14T07:37:59.942Z,74.27
2018-08-14T07:38:59.916Z,74.37
2018-08-14T07:39:59.866Z,73.98
2018-08-14T07:40:59.807Z,74.17
2018-08-14T07:41:59.789Z,73.31
2018-08-14T07:42:59.702Z,73.41
2018-08-14T07:43:59.677Z,73.41
2018-08-14T07:44:59.612Z,73.11
2018-08-14T07:45:59.563Z,73.31
2018-08-14T07:46:59.528Z,73.11
2018-08-14T07:47:59.475Z,73.31
2018-08-14T07:48:59.465Z,73.21
2018-08-14T07:49:59.415Z,73.41
2018-08-14T07:50:59.338Z,73.41
2018-08-14T07:51:59.288Z,73.41
2018-08-14T07:52:59.249Z,73.21
2018-08-14T07:53:59.190Z,73.50
2018-08-14T07:54:59.163Z,73.79
2018-08-14T07:55:59.095Z,73.69
2018-08-14T07:56:59.059Z,73.79
2018-08-14T07:57:59.134Z,73.11
2018-08-14T07:58:58.949Z,73.21
2018-08-14T07:59:58.945Z,73.69
2018-08-14T08:00:58.860Z,73.31
2018-08-14T08:01:58.811Z,73.21
2018-08-14T08:02:58.782Z,73.31
2018-08-14T08:03:58.727Z,73.50
2018-08-14T08:04:58.701Z,73.02
2018-08-14T08:05:58.639Z,73.60
2018-08-14T08:06:58.581Z,73.50
2018-08-14T08:07:58.532Z,73.98
2018-08-14T08:08:58.485Z,73.60
2018-08-14T08:09:58.470Z,73.79
2018-08-14T08:10:58.397Z,73.88
2018-08-14T08:11:58.393Z,73.98
2018-08-14T08:12:58.341Z,73.98
2018-08-14T08:13:58.280Z,74.55
2018-08-14T08:14:58.233Z,74.17
2018-08-14T08:15:58.157Z,74.55
2018-08-14T08:16:58.110Z,74.37
2018-08-14T08:17:58.057Z,74.17
2018-08-14T08:18:58.016Z,73.88
2018-08-14T08:19:57.999Z,74.17
2018-08-14T08:20:57.933Z,73.69
2018-08-14T08:21:57.881Z,73.79
2018-08-14T08:22:57.834Z,73.41
2018-08-14T08:23:57.785Z,73.41
2018-08-14T08:24:57.789Z,73.44
2018-08-14T08:25:57.710Z,73.44
2018-08-14T08:26:57.723Z,73.44
2018-08-14T08:27:57.630Z,72.77
2018-08-14T08:28:57.553Z,72.86
2018-08-14T08:29:57.535Z,72.77
2018-08-14T08:30:57.446Z,72.38
2018-08-14T08:31:57.409Z,72.86
2018-08-14T08:32:57.356Z,72.38
2018-08-14T08:33:57.345Z,72.48
2018-08-14T08:34:57.292Z,72.86
2018-08-14T08:35:57.213Z,72.67
2018-08-14T08:36:57.170Z,73.25
2018-08-14T08:37:57.124Z,73.25
2018-08-14T08:38:57.083Z,73.15
2018-08-14T08:39:57.064Z,73.35
2018-08-14T08:40:56.986Z,73.92
2018-08-14T08:41:56.969Z,73.79
2018-08-14T08:42:56.891Z,73.60
2018-08-14T08:43:56.844Z,73.60
2018-08-14T08:44:56.828Z,73.41
2018-08-14T08:45:56.754Z,73.88
2018-08-14T08:46:56.705Z,73.79
2018-08-14T08:47:56.650Z,73.98
2018-08-14T08:48:56.633Z,73.88
2018-08-14T08:49:56.581Z,74.17
2018-08-14T08:50:56.516Z,74.55
2018-08-14T08:51:56.466Z,74.17
2018-08-14T08:52:56.424Z,74.27
2018-08-14T08:53:56.368Z,74.46
2018-08-14T08:54:56.349Z,74.55
2018-08-14T08:55:56.278Z,73.98
2018-08-14T08:56:56.228Z,74.17
2018-08-14T08:57:56.194Z,74.37
2018-08-14T08:58:56.133Z,74.08
2018-08-14T08:59:56.111Z,73.79
2018-08-14T09:00:56.045Z,74.27
2018-08-14T09:01:55.992Z,73.79
2018-08-14T09:02:55.946Z,73.98
2018-08-14T09:03:55.921Z,73.31
2018-08-14T09:04:55.885Z,73.21
2018-08-14T09:05:55.806Z,73.02
2018-08-14T09:06:55.763Z,74.27
2018-08-14T09:07:55.722Z,74.27
2018-08-14T09:08:55.669Z,74.17
2018-08-14T09:09:55.637Z,73.79
2018-08-14T09:10:55.566Z,73.60
2018-08-14T09:11:55.522Z,73.69
2018-08-14T09:12:55.477Z,74.55
2018-08-14T09:13:55.426Z,74.17
2018-08-14T09:14:55.408Z,74.08
2018-08-14T09:15:55.336Z,74.17
2018-08-14T09:16:55.292Z,73.60
2018-08-14T09:17:55.241Z,73.69
2018-08-14T09:18:55.195Z,73.60
2018-08-14T09:19:55.182Z,73.98
2018-08-14T09:20:55.103Z,73.88
2018-08-14T09:21:55.053Z,73.31
2018-08-14T09:22:55.004Z,73.79
2018-08-14T09:23:54.978Z,73.60
2018-08-14T09:24:54.911Z,74.37
2018-08-14T09:25:54.894Z,74.37
2018-08-14T09:26:54.823Z,74.46
2018-08-14T09:27:54.773Z,74.37
2018-08-14T09:28:54.731Z,74.17
2018-08-14T09:29:54.697Z,73.88
2018-08-14T09:30:54.652Z,73.98
2018-08-14T09:31:54.578Z,74.08
2018-08-14T09:32:54.531Z,73.11
2018-08-14T09:33:54.488Z,73.50
2018-08-14T09:34:54.440Z,73.31
2018-08-14T09:35:54.415Z,73.60
2018-08-14T09:36:54.407Z,72.64
2018-08-14T09:37:54.300Z,73.63
2018-08-14T09:38:54.251Z,73.06
2018-08-14T09:39:54.211Z,73.25
2018-08-14T09:40:54.182Z,73.15
2018-08-14T09:41:54.113Z,75.07
2018-08-14T09:42:54.064Z,74.21
2018-08-14T09:43:54.038Z,74.11
2018-08-14T09:44:53.973Z,73.54
2018-08-14T09:45:53.952Z,74.21
2018-08-14T09:46:53.890Z,74.11
2018-08-14T09:47:53.832Z,74.02
2018-08-14T09:48:53.785Z,73.25
2018-08-14T09:49:53.735Z,74.21
2018-08-14T09:50:53.715Z,75.27
2018-08-14T09:51:53.659Z,74.21
2018-08-14T09:52:53.597Z,74.21
2018-08-14T09:53:53.621Z,75.27
2018-08-14T09:54:53.513Z,75.31
2018-08-14T09:55:53.495Z,75.69
2018-08-14T09:56:53.409Z,76.65
2018-08-14T09:57:53.378Z,76.17
2018-08-14T09:58:53.343Z,75.69
2018-08-14T09:59:53.273Z,75.88
2018-08-14T10:00:53.261Z,78.09
2018-08-14T10:01:53.178Z,77.23
2018-08-14T10:02:53.133Z,77.90
2018-08-14T10:03:53.086Z,76.46
2018-08-14T10:04:53.084Z,78.00
2018-08-14T10:05:53.024Z,79.35
2018-08-14T10:06:52.946Z,81.84
2018-08-14T10:07:52.910Z,79.48
2018-08-14T10:08:52.935Z,79.58
2018-08-14T10:09:52.815Z,80.15
2018-08-14T10:10:52.795Z,80.15
2018-08-14T10:11:52.715Z,79.58
2018-08-14T10:12:52.669Z,81.70
2018-08-14T10:13:52.622Z,79.71
2018-08-14T10:14:52.580Z,81.40
2018-08-14T10:15:52.567Z,80.10
2018-08-14T10:16:52.487Z,86.60
2018-08-14T10:17:52.442Z,86.65
2018-08-14T10:18:52.394Z,87.08
2018-08-14T10:19:52.366Z,87.08
2018-08-14T10:20:52.388Z,90.26
2018-08-14T10:21:52.254Z,91.75
2018-08-14T10:22:52.205Z,95.50
2018-08-14T10:23:52.160Z,89.64
2018-08-14T10:24:52.131Z,87.62
2018-08-14T10:25:52.091Z,85.78
2018-08-14T10:26:52.137Z,85.78
2018-08-14T10:27:51.974Z,85.21
2018-08-14T10:28:51.992Z,84.34
2018-08-14T10:29:51.884Z,85.21
2018-08-14T10:30:51.886Z,86.27
2018-08-14T10:31:51.795Z,86.46
2018-08-14T10:32:51.748Z,85.21
2018-08-14T10:33:51.702Z,87.81
2018-08-14T10:34:51.654Z,88.39
2018-08-14T10:35:51.612Z,86.94
2018-08-14T10:36:51.589Z,87.71
2018-08-14T10:37:51.516Z,91.75
2018-08-14T10:38:51.476Z,90.31
2018-08-14T10:39:51.439Z,92.04
2018-08-14T10:40:51.374Z,88.00
2018-08-14T10:41:51.355Z,87.46
2018-08-14T10:42:51.284Z,88.14
2018-08-14T10:43:51.239Z,87.85
2018-08-14T10:44:51.190Z,86.99
2018-08-14T10:45:51.144Z,86.41
2018-08-14T10:46:51.132Z,91.51
2018-08-14T10:47:51.057Z,89.39
2018-08-14T10:48:51.005Z,91.36
2018-08-14T10:49:50.958Z,90.40
2018-08-14T10:50:50.911Z,91.84
2018-08-14T10:51:50.889Z,89.92
2018-08-14T10:52:50.824Z,95.21
2018-08-14T10:53:50.776Z,95.12
2018-08-14T10:54:50.729Z,95.40
2018-08-14T10:55:50.688Z,93.57
2018-08-14T10:56:50.667Z,95.31
2018-08-14T10:57:50.588Z,94.01
2018-08-14T10:58:50.626Z,92.71
2018-08-14T10:59:50.500Z,91.51
2018-08-14T11:00:50.456Z,95.65
2018-08-14T11:01:50.432Z,90.83
2018-08-14T11:02:50.368Z,97.57
2018-08-14T11:03:50.317Z,99.69
2018-08-14T11:04:50.330Z,96.32
2018-08-14T11:05:50.220Z,96.27
2018-08-14T11:06:50.238Z,93.48
2018-08-14T11:07:50.128Z,93.38
2018-08-14T11:08:50.086Z,94.83
2018-08-14T11:09:50.036Z,99.99
2018-08-14T11:10:50.066Z,96.70
2018-08-14T11:11:49.976Z,96.51
2018-08-14T11:12:49.902Z,99.99
2018-08-14T11:13:49.850Z,95.45
2018-08-14T11:14:49.805Z,93.53
2018-08-14T11:15:49.759Z,96.13
2018-08-14T11:16:49.737Z,92.76
2018-08-14T11:17:49.666Z,91.42
2018-08-14T11:18:49.628Z,92.76
2018-08-14T11:19:49.572Z,89.50
2018-08-14T11:20:49.529Z,89.01
2018-08-14T11:21:49.503Z,89.01
2018-08-14T11:22:49.429Z,89.40
2018-08-14T11:23:49.388Z,89.40
2018-08-14T11:24:49.372Z,92.09
2018-08-14T11:25:49.295Z,88.82
2018-08-14T11:26:49.270Z,94.30
2018-08-14T11:27:49.197Z,92.38
2018-08-14T11:28:49.158Z,93.73
2018-08-14T11:29:49.107Z,92.29
2018-08-14T11:30:49.059Z,92.29
2018-08-14T11:31:49.035Z,92.29
2018-08-14T11:32:48.969Z,93.91
2018-08-14T11:33:51.181Z,91.61
2018-08-14T11:34:48.870Z,89.30
2018-08-14T11:35:49.157Z,90.45
2018-08-14T11:36:50.176Z,88.24
2018-08-14T11:37:48.811Z,91.08
2018-08-14T11:38:48.687Z,89.07
2018-08-14T11:39:48.700Z,87.82
2018-08-14T11:40:48.595Z,86.85
2018-08-14T11:41:48.569Z,88.06
2018-08-14T11:42:48.497Z,86.52
2018-08-14T11:43:48.449Z,87.19
2018-08-14T11:44:48.409Z,85.18
2018-08-14T11:45:48.360Z,84.70
2018-08-14T11:46:48.311Z,81.24
2018-08-14T11:47:48.288Z,83.64
2018-08-14T11:48:48.216Z,86.19
2018-08-14T11:49:48.165Z,83.54
2018-08-14T11:50:48.154Z,83.60
2018-08-14T11:51:48.075Z,82.30
2018-08-14T11:52:48.050Z,81.34
2018-08-14T11:53:47.978Z,81.43
2018-08-14T11:54:47.937Z,81.15
2018-08-14T11:55:47.898Z,80.76
2018-08-14T11:56:47.877Z,80.47
2018-08-14T11:57:47.812Z,80.19
2018-08-14T11:58:47.742Z,81.53
2018-08-14T11:59:47.694Z,81.72
2018-08-14T12:00:47.651Z,80.13
2018-08-14T12:01:47.598Z,79.94
2018-08-14T12:02:47.575Z,81.19
2018-08-14T12:03:47.505Z,80.51
2018-08-14T12:04:47.456Z,79.55
2018-08-14T12:05:47.413Z,79.55
2018-08-14T12:06:47.385Z,84.55
2018-08-14T12:07:47.355Z,83.11
2018-08-14T12:08:47.271Z,80.90
2018-08-14T12:09:47.225Z,79.94
2018-08-14T12:10:47.237Z,79.55
2018-08-14T12:11:47.130Z,79.65
2018-08-14T12:12:47.120Z,78.50
2018-08-14T12:13:47.034Z,78.50
2018-08-14T12:14:46.992Z,80.04
2018-08-14T12:15:46.940Z,80.13
2018-08-14T12:16:46.913Z,79.94
2018-08-14T12:17:46.873Z,80.71
2018-08-14T12:18:46.799Z,81.38
2018-08-14T12:19:46.780Z,86.57
2018-08-14T12:20:46.707Z,86.47
2018-08-14T12:21:46.657Z,90.84
2018-08-14T12:22:46.652Z,90.84
2018-08-14T12:23:46.575Z,88.93
2018-08-14T12:24:46.526Z,86.72
2018-08-14T12:25:46.485Z,87.10
2018-08-14T12:26:46.428Z,90.37
2018-08-14T12:27:46.419Z,92.67
2018-08-14T12:28:46.337Z,88.73
2018-08-14T12:29:46.282Z,89.60
2018-08-14T12:30:46.239Z,89.22
2018-08-14T12:31:46.187Z,88.79
2018-08-14T12:32:46.190Z,88.93
2018-08-14T12:33:46.092Z,86.96
2018-08-14T12:34:46.051Z,87.39
2018-08-14T12:35:45.999Z,88.06
2018-08-14T12:36:45.957Z,87.01
2018-08-14T12:37:45.924Z,85.47
2018-08-14T12:38:45.865Z,86.81
2018-08-14T12:39:45.812Z,87.01
2018-08-14T12:40:45.761Z,88.83
2018-08-14T12:41:45.715Z,86.05
2018-08-14T12:42:45.737Z,85.85
2018-08-14T12:43:45.623Z,88.97
2018-08-14T12:44:45.579Z,92.72
2018-08-14T12:45:45.535Z,92.62
2018-08-14T12:46:45.479Z,95.31
2018-08-14T12:47:45.462Z,91.95
2018-08-14T12:48:45.391Z,91.95
2018-08-14T12:49:45.341Z,90.12
2018-08-14T12:50:45.290Z,87.72
2018-08-14T12:51:45.243Z,87.34